sensor_id;sensor_type;location;lat;lon;timestamp;P1;durP1;ratioP1;P2;durP2;ratioP2
13477;SDS011;12598;62.382;17.344;2022-08-01T00:00:25;1.52;;;1.42;;
13477;SDS011;12598;62.382;17.344;2022-08-01T00:01:28;2.95;;;1.45;;
13477;SDS011;12598;62.382;17.344;2022-08-01T00:02:29;1.55;;;1.45;;
13477;SDS011;12598;62.382;17.344;2022-08-01T00:03:32;2.08;;;1.40;;
13477;SDS011;12598;62.382;17.344;2022-08-01T00:04:34;2.45;;;1.60;;
13477;SDS011;12598;62.382;17.344;2022-08-01T00:05:36;4.13;;;1.60;;
13477;SDS011;12598;62.382;17.344;2022-08-01T00:06:38;2.67;;;1.55;;
13477;SDS011;12598;62.382;17.344;2022-08-01T00:07:40;1.60;;;1.48;;
13477;SDS011;12598;62.382;17.344;2022-08-01T00:08:42;1.80;;;1.40;;
13477;SDS011;12598;62.382;17.344;2022-08-01T00:09:44;2.20;;;1.30;;
13477;SDS011;12598;62.382;17.344;2022-08-01T00:10:46;1.55;;;1.40;;
13477;SDS011;12598;62.382;17.344;2022-08-01T00:11:48;1.50;;;1.40;;
13477;SDS011;12598;62.382;17.344;2022-08-01T00:13:00;1.60;;;1.40;;
13477;SDS011;12598;62.382;17.344;2022-08-01T00:14:02;1.75;;;1.65;;
13477;SDS011;12598;62.382;17.344;2022-08-01T00:15:04;1.50;;;1.40;;
13477;SDS011;12598;62.382;17.344;2022-08-01T00:16:08;1.70;;;1.25;;
13477;SDS011;12598;62.382;17.344;2022-08-01T00:17:11;1.75;;;1.50;;
13477;SDS011;12598;62.382;17.344;2022-08-01T00:18:13;1.80;;;1.70;;
13477;SDS011;12598;62.382;17.344;2022-08-01T00:19:16;1.98;;;1.35;;
13477;SDS011;12598;62.382;17.344;2022-08-01T00:20:18;1.70;;;1.55;;
13477;SDS011;12598;62.382;17.344;2022-08-01T00:21:20;1.88;;;1.45;;
13477;SDS011;12598;62.382;17.344;2022-08-01T00:22:22;3.58;;;1.42;;
13477;SDS011;12598;62.382;17.344;2022-08-01T00:23:24;1.92;;;1.30;;
13477;SDS011;12598;62.382;17.344;2022-08-01T00:24:26;2.03;;;1.85;;
13477;SDS011;12598;62.382;17.344;2022-08-01T00:25:28;1.33;;;1.23;;
13477;SDS011;12598;62.382;17.344;2022-08-01T00:26:34;1.50;;;1.27;;
13477;SDS011;12598;62.382;17.344;2022-08-01T00:27:36;1.15;;;1.05;;
13477;SDS011;12598;62.382;17.344;2022-08-01T00:28:38;1.70;;;1.60;;
13477;SDS011;12598;62.382;17.344;2022-08-01T00:29:41;2.03;;;1.40;;
13477;SDS011;12598;62.382;17.344;2022-08-01T00:31:03;1.48;;;1.38;;
13477;SDS011;12598;62.382;17.344;2022-08-01T00:32:05;1.30;;;1.20;;
13477;SDS011;12598;62.382;17.344;2022-08-01T00:33:08;1.60;;;1.50;;
13477;SDS011;12598;62.382;17.344;2022-08-01T00:34:10;1.90;;;1.35;;
13477;SDS011;12598;62.382;17.344;2022-08-01T00:35:11;1.80;;;1.35;;
13477;SDS011;12598;62.382;17.344;2022-08-01T00:36:14;1.55;;;1.27;;
13477;SDS011;12598;62.382;17.344;2022-08-01T00:37:16;3.08;;;1.48;;
13477;SDS011;12598;62.382;17.344;2022-08-01T00:38:18;1.50;;;1.40;;
13477;SDS011;12598;62.382;17.344;2022-08-01T00:39:20;1.60;;;1.50;;
13477;SDS011;12598;62.382;17.344;2022-08-01T00:40:23;1.60;;;1.50;;
13477;SDS011;12598;62.382;17.344;2022-08-01T00:41:24;1.30;;;1.20;;
13477;SDS011;12598;62.382;17.344;2022-08-01T00:42:26;1.67;;;1.33;;
13477;SDS011;12598;62.382;17.344;2022-08-01T00:43:28;1.60;;;1.40;;
13477;SDS011;12598;62.382;17.344;2022-08-01T00:44:30;1.83;;;1.40;;
13477;SDS011;12598;62.382;17.344;2022-08-01T00:45:32;1.85;;;1.60;;
13477;SDS011;12598;62.382;17.344;2022-08-01T00:46:34;1.58;;;1.48;;
13477;SDS011;12598;62.382;17.344;2022-08-01T00:47:38;1.67;;;1.50;;
13477;SDS011;12598;62.382;17.344;2022-08-01T00:48:40;1.50;;;1.40;;
13477;SDS011;12598;62.382;17.344;2022-08-01T00:49:42;1.65;;;1.48;;
13477;SDS011;12598;62.382;17.344;2022-08-01T00:50:44;2.38;;;1.60;;
13477;SDS011;12598;62.382;17.344;2022-08-01T00:51:47;1.67;;;1.50;;
13477;SDS011;12598;62.382;17.344;2022-08-01T00:52:49;1.88;;;1.30;;
13477;SDS011;12598;62.382;17.344;2022-08-01T00:53:52;1.90;;;1.52;;
13477;SDS011;12598;62.382;17.344;2022-08-01T00:54:55;2.20;;;1.75;;
13477;SDS011;12598;62.382;17.344;2022-08-01T00:55:57;2.40;;;1.63;;
13477;SDS011;12598;62.382;17.344;2022-08-01T00:56:59;2.45;;;1.40;;
13477;SDS011;12598;62.382;17.344;2022-08-01T00:58:01;1.70;;;1.50;;
13477;SDS011;12598;62.382;17.344;2022-08-01T00:59:07;2.67;;;1.58;;
13477;SDS011;12598;62.382;17.344;2022-08-01T01:00:11;2.50;;;1.60;;
13477;SDS011;12598;62.382;17.344;2022-08-01T01:01:14;2.03;;;1.63;;
13477;SDS011;12598;62.382;17.344;2022-08-01T01:02:16;1.92;;;1.73;;
13477;SDS011;12598;62.382;17.344;2022-08-01T01:03:19;2.22;;;1.42;;
13477;SDS011;12598;62.382;17.344;2022-08-01T01:04:33;2.35;;;1.80;;
13477;SDS011;12598;62.382;17.344;2022-08-01T01:05:40;1.80;;;1.45;;
13477;SDS011;12598;62.382;17.344;2022-08-01T01:07:17;3.38;;;1.60;;
13477;SDS011;12598;62.382;17.344;2022-08-01T01:08:24;2.55;;;1.63;;
13477;SDS011;12598;62.382;17.344;2022-08-01T01:12:15;2.97;;;1.58;;
13477;SDS011;12598;62.382;17.344;2022-08-01T01:13:05;1.98;;;1.77;;
13477;SDS011;12598;62.382;17.344;2022-08-01T01:14:23;2.00;;;1.63;;
13477;SDS011;12598;62.382;17.344;2022-08-01T01:15:53;1.60;;;1.50;;
13477;SDS011;12598;62.382;17.344;2022-08-01T01:17:00;2.70;;;1.52;;
13477;SDS011;12598;62.382;17.344;2022-08-01T01:18:07;2.10;;;1.90;;
13477;SDS011;12598;62.382;17.344;2022-08-01T01:19:13;2.38;;;1.63;;
13477;SDS011;12598;62.382;17.344;2022-08-01T01:20:23;2.08;;;1.90;;
13477;SDS011;12598;62.382;17.344;2022-08-01T01:21:35;1.70;;;1.60;;
13477;SDS011;12598;62.382;17.344;2022-08-01T01:24:14;2.40;;;1.83;;
13477;SDS011;12598;62.382;17.344;2022-08-01T01:26:49;1.77;;;1.67;;
13477;SDS011;12598;62.382;17.344;2022-08-01T01:29:46;2.22;;;1.75;;
13477;SDS011;12598;62.382;17.344;2022-08-01T01:31:00;1.98;;;1.65;;
13477;SDS011;12598;62.382;17.344;2022-08-01T01:32:18;2.15;;;1.95;;
13477;SDS011;12598;62.382;17.344;2022-08-01T01:33:31;1.95;;;1.77;;
13477;SDS011;12598;62.382;17.344;2022-08-01T01:34:36;1.60;;;1.50;;
13477;SDS011;12598;62.382;17.344;2022-08-01T01:35:46;1.83;;;1.65;;
13477;SDS011;12598;62.382;17.344;2022-08-01T01:36:50;3.10;;;1.60;;
13477;SDS011;12598;62.382;17.344;2022-08-01T01:38:01;1.88;;;1.77;;
13477;SDS011;12598;62.382;17.344;2022-08-01T01:39:09;2.15;;;1.95;;
13477;SDS011;12598;62.382;17.344;2022-08-01T01:40:11;2.03;;;1.83;;
13477;SDS011;12598;62.382;17.344;2022-08-01T01:41:15;2.17;;;1.58;;
13477;SDS011;12598;62.382;17.344;2022-08-01T01:42:19;2.03;;;1.70;;
13477;SDS011;12598;62.382;17.344;2022-08-01T01:43:22;2.03;;;1.83;;
13477;SDS011;12598;62.382;17.344;2022-08-01T01:44:34;2.47;;;2.00;;
13477;SDS011;12598;62.382;17.344;2022-08-01T01:45:38;1.77;;;1.60;;
13477;SDS011;12598;62.382;17.344;2022-08-01T01:46:41;2.90;;;1.90;;
13477;SDS011;12598;62.382;17.344;2022-08-01T01:47:44;1.73;;;1.63;;
13477;SDS011;12598;62.382;17.344;2022-08-01T01:48:47;2.33;;;1.90;;
13477;SDS011;12598;62.382;17.344;2022-08-01T01:49:50;2.13;;;1.92;;
13477;SDS011;12598;62.382;17.344;2022-08-01T01:50:54;1.98;;;1.88;;
13477;SDS011;12598;62.382;17.344;2022-08-01T01:51:58;2.17;;;1.98;;
13477;SDS011;12598;62.382;17.344;2022-08-01T01:53:03;1.85;;;1.75;;
13477;SDS011;12598;62.382;17.344;2022-08-01T01:54:15;2.22;;;2.03;;
13477;SDS011;12598;62.382;17.344;2022-08-01T01:55:18;2.08;;;1.80;;
13477;SDS011;12598;62.382;17.344;2022-08-01T01:56:23;2.25;;;1.75;;
13477;SDS011;12598;62.382;17.344;2022-08-01T01:57:26;3.10;;;1.55;;
13477;SDS011;12598;62.382;17.344;2022-08-01T01:58:33;2.47;;;1.70;;
13477;SDS011;12598;62.382;17.344;2022-08-01T01:59:36;1.70;;;1.60;;
13477;SDS011;12598;62.382;17.344;2022-08-01T02:00:41;3.45;;;1.70;;
13477;SDS011;12598;62.382;17.344;2022-08-01T02:01:46;2.75;;;1.80;;
13477;SDS011;12598;62.382;17.344;2022-08-01T02:03:09;2.22;;;1.80;;
13477;SDS011;12598;62.382;17.344;2022-08-01T02:04:13;2.17;;;1.38;;
13477;SDS011;12598;62.382;17.344;2022-08-01T02:05:15;1.63;;;1.52;;
13477;SDS011;12598;62.382;17.344;2022-08-01T02:06:18;2.55;;;1.85;;
13477;SDS011;12598;62.382;17.344;2022-08-01T02:07:24;2.55;;;2.08;;
13477;SDS011;12598;62.382;17.344;2022-08-01T02:08:27;3.10;;;2.35;;
13477;SDS011;12598;62.382;17.344;2022-08-01T02:09:33;3.15;;;1.70;;
13477;SDS011;12598;62.382;17.344;2022-08-01T02:10:37;2.20;;;2.03;;
13477;SDS011;12598;62.382;17.344;2022-08-01T02:11:41;2.42;;;2.00;;
13477;SDS011;12598;62.382;17.344;2022-08-01T02:13:05;2.67;;;2.40;;
13477;SDS011;12598;62.382;17.344;2022-08-01T02:14:08;2.80;;;2.00;;
13477;SDS011;12598;62.382;17.344;2022-08-01T02:15:12;3.30;;;2.15;;
13477;SDS011;12598;62.382;17.344;2022-08-01T02:16:15;2.05;;;1.92;;
13477;SDS011;12598;62.382;17.344;2022-08-01T02:17:18;2.70;;;2.05;;
13477;SDS011;12598;62.382;17.344;2022-08-01T02:18:22;3.60;;;2.03;;
13477;SDS011;12598;62.382;17.344;2022-08-01T02:19:24;2.88;;;2.00;;
13477;SDS011;12598;62.382;17.344;2022-08-01T02:20:26;2.28;;;2.08;;
13477;SDS011;12598;62.382;17.344;2022-08-01T02:21:35;3.65;;;1.85;;
13477;SDS011;12598;62.382;17.344;2022-08-01T02:22:41;2.80;;;2.00;;
13477;SDS011;12598;62.382;17.344;2022-08-01T02:23:47;2.05;;;1.85;;
13477;SDS011;12598;62.382;17.344;2022-08-01T02:25:02;2.20;;;2.00;;
13477;SDS011;12598;62.382;17.344;2022-08-01T02:26:09;2.05;;;1.80;;
13477;SDS011;12598;62.382;17.344;2022-08-01T02:27:15;2.10;;;1.90;;
13477;SDS011;12598;62.382;17.344;2022-08-01T02:28:36;1.90;;;1.80;;
13477;SDS011;12598;62.382;17.344;2022-08-01T02:29:50;2.25;;;2.05;;
13477;SDS011;12598;62.382;17.344;2022-08-01T02:31:00;3.25;;;1.88;;
13477;SDS011;12598;62.382;17.344;2022-08-01T02:32:06;2.08;;;1.90;;
13477;SDS011;12598;62.382;17.344;2022-08-01T02:33:14;2.17;;;1.98;;
13477;SDS011;12598;62.382;17.344;2022-08-01T02:34:19;2.78;;;2.05;;
13477;SDS011;12598;62.382;17.344;2022-08-01T02:35:25;2.33;;;2.13;;
13477;SDS011;12598;62.382;17.344;2022-08-01T02:36:30;2.28;;;2.08;;
13477;SDS011;12598;62.382;17.344;2022-08-01T02:37:34;2.13;;;1.90;;
13477;SDS011;12598;62.382;17.344;2022-08-01T02:38:45;2.28;;;2.00;;
13477;SDS011;12598;62.382;17.344;2022-08-01T02:39:49;2.95;;;2.10;;
13477;SDS011;12598;62.382;17.344;2022-08-01T02:40:54;2.03;;;1.80;;
13477;SDS011;12598;62.382;17.344;2022-08-01T02:42:02;1.98;;;1.88;;
13477;SDS011;12598;62.382;17.344;2022-08-01T02:43:08;2.30;;;2.10;;
13477;SDS011;12598;62.382;17.344;2022-08-01T02:44:14;2.45;;;1.85;;
13477;SDS011;12598;62.382;17.344;2022-08-01T02:45:24;2.25;;;1.90;;
13477;SDS011;12598;62.382;17.344;2022-08-01T02:46:29;2.65;;;1.80;;
13477;SDS011;12598;62.382;17.344;2022-08-01T02:47:36;3.67;;;2.35;;
13477;SDS011;12598;62.382;17.344;2022-08-01T02:48:41;3.20;;;2.15;;
13477;SDS011;12598;62.382;17.344;2022-08-01T02:49:45;2.22;;;1.95;;
13477;SDS011;12598;62.382;17.344;2022-08-01T02:50:54;4.00;;;2.05;;
13477;SDS011;12598;62.382;17.344;2022-08-01T02:52:01;2.30;;;2.00;;
13477;SDS011;12598;62.382;17.344;2022-08-01T02:53:06;3.10;;;2.10;;
13477;SDS011;12598;62.382;17.344;2022-08-01T02:54:11;2.30;;;2.10;;
13477;SDS011;12598;62.382;17.344;2022-08-01T02:55:13;2.65;;;2.10;;
13477;SDS011;12598;62.382;17.344;2022-08-01T02:56:16;3.17;;;2.17;;
13477;SDS011;12598;62.382;17.344;2022-08-01T02:57:20;2.35;;;1.90;;
13477;SDS011;12598;62.382;17.344;2022-08-01T02:58:29;2.20;;;2.00;;
13477;SDS011;12598;62.382;17.344;2022-08-01T02:59:32;2.65;;;1.92;;
13477;SDS011;12598;62.382;17.344;2022-08-01T03:00:44;2.72;;;1.90;;
13477;SDS011;12598;62.382;17.344;2022-08-01T03:01:48;2.15;;;1.95;;
13477;SDS011;12598;62.382;17.344;2022-08-01T03:02:56;1.98;;;1.85;;
13477;SDS011;12598;62.382;17.344;2022-08-01T03:04:00;2.05;;;1.90;;
13477;SDS011;12598;62.382;17.344;2022-08-01T03:05:02;2.35;;;2.15;;
13477;SDS011;12598;62.382;17.344;2022-08-01T03:06:05;2.78;;;2.22;;
13477;SDS011;12598;62.382;17.344;2022-08-01T03:07:09;2.97;;;2.38;;
13477;SDS011;12598;62.382;17.344;2022-08-01T03:08:13;2.40;;;2.15;;
13477;SDS011;12598;62.382;17.344;2022-08-01T03:09:18;2.30;;;2.10;;
13477;SDS011;12598;62.382;17.344;2022-08-01T03:10:21;4.30;;;2.25;;
13477;SDS011;12598;62.382;17.344;2022-08-01T03:11:25;2.58;;;1.80;;
13477;SDS011;12598;62.382;17.344;2022-08-01T03:12:29;2.42;;;1.80;;
13477;SDS011;12598;62.382;17.344;2022-08-01T03:13:35;2.20;;;2.00;;
13477;SDS011;12598;62.382;17.344;2022-08-01T03:14:39;2.88;;;2.03;;
13477;SDS011;12598;62.382;17.344;2022-08-01T03:15:43;2.85;;;2.17;;
13477;SDS011;12598;62.382;17.344;2022-08-01T03:16:47;2.67;;;1.73;;
13477;SDS011;12598;62.382;17.344;2022-08-01T03:17:50;2.47;;;2.03;;
13477;SDS011;12598;62.382;17.344;2022-08-01T03:18:54;2.30;;;2.10;;
13477;SDS011;12598;62.382;17.344;2022-08-01T03:19:58;2.03;;;1.83;;
13477;SDS011;12598;62.382;17.344;2022-08-01T03:21:04;1.88;;;1.77;;
13477;SDS011;12598;62.382;17.344;2022-08-01T03:22:08;2.58;;;2.13;;
13477;SDS011;12598;62.382;17.344;2022-08-01T03:23:13;2.38;;;2.17;;
13477;SDS011;12598;62.382;17.344;2022-08-01T03:24:16;3.85;;;1.80;;
13477;SDS011;12598;62.382;17.344;2022-08-01T03:25:21;3.58;;;2.00;;
13477;SDS011;12598;62.382;17.344;2022-08-01T03:26:26;2.72;;;2.05;;
13477;SDS011;12598;62.382;17.344;2022-08-01T03:27:30;2.30;;;2.10;;
13477;SDS011;12598;62.382;17.344;2022-08-01T03:28:32;2.05;;;1.88;;
13477;SDS011;12598;62.382;17.344;2022-08-01T03:29:34;1.80;;;1.70;;
13477;SDS011;12598;62.382;17.344;2022-08-01T03:30:37;2.20;;;2.00;;
13477;SDS011;12598;62.382;17.344;2022-08-01T03:31:41;3.13;;;2.13;;
13477;SDS011;12598;62.382;17.344;2022-08-01T03:32:46;3.70;;;1.70;;
13477;SDS011;12598;62.382;17.344;2022-08-01T03:33:48;1.90;;;1.70;;
13477;SDS011;12598;62.382;17.344;2022-08-01T03:34:50;2.00;;;1.80;;
13477;SDS011;12598;62.382;17.344;2022-08-01T03:35:53;2.47;;;1.80;;
13477;SDS011;12598;62.382;17.344;2022-08-01T03:37:02;2.70;;;1.80;;
13477;SDS011;12598;62.382;17.344;2022-08-01T03:38:08;3.75;;;1.90;;
13477;SDS011;12598;62.382;17.344;2022-08-01T03:39:17;2.22;;;1.85;;
13477;SDS011;12598;62.382;17.344;2022-08-01T03:40:23;2.50;;;2.08;;
13477;SDS011;12598;62.382;17.344;2022-08-01T03:41:32;1.83;;;1.73;;
13477;SDS011;12598;62.382;17.344;2022-08-01T03:42:41;3.17;;;1.92;;
13477;SDS011;12598;62.382;17.344;2022-08-01T03:44:00;2.72;;;2.05;;
13477;SDS011;12598;62.382;17.344;2022-08-01T03:45:07;1.73;;;1.63;;
13477;SDS011;12598;62.382;17.344;2022-08-01T03:46:17;1.92;;;1.50;;
13477;SDS011;12598;62.382;17.344;2022-08-01T03:47:26;2.20;;;2.00;;
13477;SDS011;12598;62.382;17.344;2022-08-01T03:48:33;1.75;;;1.63;;
13477;SDS011;12598;62.382;17.344;2022-08-01T03:49:41;2.20;;;2.10;;
13477;SDS011;12598;62.382;17.344;2022-08-01T03:50:46;2.22;;;2.03;;
13477;SDS011;12598;62.382;17.344;2022-08-01T03:51:51;2.25;;;1.70;;
13477;SDS011;12598;62.382;17.344;2022-08-01T03:52:54;2.17;;;1.85;;
13477;SDS011;12598;62.382;17.344;2022-08-01T03:54:00;1.80;;;1.70;;
13477;SDS011;12598;62.382;17.344;2022-08-01T03:55:04;2.10;;;1.90;;
13477;SDS011;12598;62.382;17.344;2022-08-01T03:56:11;1.67;;;1.58;;
13477;SDS011;12598;62.382;17.344;2022-08-01T03:57:17;2.75;;;1.90;;
13477;SDS011;12598;62.382;17.344;2022-08-01T03:58:38;2.00;;;1.90;;
13477;SDS011;12598;62.382;17.344;2022-08-01T03:59:40;3.75;;;2.03;;
13477;SDS011;12598;62.382;17.344;2022-08-01T04:00:44;2.45;;;1.85;;
13477;SDS011;12598;62.382;17.344;2022-08-01T04:01:47;1.70;;;1.60;;
13477;SDS011;12598;62.382;17.344;2022-08-01T04:02:49;2.63;;;1.95;;
13477;SDS011;12598;62.382;17.344;2022-08-01T04:03:53;2.20;;;1.80;;
13477;SDS011;12598;62.382;17.344;2022-08-01T04:04:56;2.45;;;1.65;;
13477;SDS011;12598;62.382;17.344;2022-08-01T04:05:58;1.95;;;1.63;;
13477;SDS011;12598;62.382;17.344;2022-08-01T04:07:00;4.05;;;2.20;;
13477;SDS011;12598;62.382;17.344;2022-08-01T04:08:08;3.35;;;1.90;;
13477;SDS011;12598;62.382;17.344;2022-08-01T04:09:09;2.25;;;1.90;;
13477;SDS011;12598;62.382;17.344;2022-08-01T04:10:14;1.77;;;1.67;;
13477;SDS011;12598;62.382;17.344;2022-08-01T04:11:16;2.92;;;2.10;;
13477;SDS011;12598;62.382;17.344;2022-08-01T04:12:18;4.30;;;2.10;;
13477;SDS011;12598;62.382;17.344;2022-08-01T04:13:20;2.78;;;2.17;;
13477;SDS011;12598;62.382;17.344;2022-08-01T04:14:22;2.58;;;2.00;;
13477;SDS011;12598;62.382;17.344;2022-08-01T04:15:24;2.90;;;2.05;;
13477;SDS011;12598;62.382;17.344;2022-08-01T04:16:25;2.97;;;2.20;;
13477;SDS011;12598;62.382;17.344;2022-08-01T04:17:27;3.58;;;2.53;;
13477;SDS011;12598;62.382;17.344;2022-08-01T04:18:29;6.10;;;2.38;;
13477;SDS011;12598;62.382;17.344;2022-08-01T04:19:31;3.47;;;2.05;;
13477;SDS011;12598;62.382;17.344;2022-08-01T04:20:33;3.63;;;2.30;;
13477;SDS011;12598;62.382;17.344;2022-08-01T04:21:36;2.58;;;2.35;;
13477;SDS011;12598;62.382;17.344;2022-08-01T04:22:39;2.33;;;1.98;;
13477;SDS011;12598;62.382;17.344;2022-08-01T04:23:41;3.05;;;1.95;;
13477;SDS011;12598;62.382;17.344;2022-08-01T04:24:46;2.97;;;2.20;;
13477;SDS011;12598;62.382;17.344;2022-08-01T04:25:56;2.65;;;1.90;;
13477;SDS011;12598;62.382;17.344;2022-08-01T04:27:00;2.95;;;2.30;;
13477;SDS011;12598;62.382;17.344;2022-08-01T04:28:06;3.25;;;1.77;;
13477;SDS011;12598;62.382;17.344;2022-08-01T04:29:12;4.10;;;2.13;;
13477;SDS011;12598;62.382;17.344;2022-08-01T04:30:20;3.28;;;1.92;;
13477;SDS011;12598;62.382;17.344;2022-08-01T04:31:26;3.90;;;2.00;;
13477;SDS011;12598;62.382;17.344;2022-08-01T04:32:29;3.65;;;2.15;;
13477;SDS011;12598;62.382;17.344;2022-08-01T04:33:34;2.97;;;1.90;;
13477;SDS011;12598;62.382;17.344;2022-08-01T04:34:40;3.55;;;1.85;;
13477;SDS011;12598;62.382;17.344;2022-08-01T04:35:47;2.33;;;1.92;;
13477;SDS011;12598;62.382;17.344;2022-08-01T04:37:04;3.38;;;2.20;;
13477;SDS011;12598;62.382;17.344;2022-08-01T04:38:09;2.40;;;2.08;;
13477;SDS011;12598;62.382;17.344;2022-08-01T04:39:14;2.20;;;1.92;;
13477;SDS011;12598;62.382;17.344;2022-08-01T04:40:18;2.25;;;1.90;;
13477;SDS011;12598;62.382;17.344;2022-08-01T04:41:23;3.63;;;1.90;;
13477;SDS011;12598;62.382;17.344;2022-08-01T04:42:26;2.50;;;2.13;;
13477;SDS011;12598;62.382;17.344;2022-08-01T04:43:33;3.72;;;2.28;;
13477;SDS011;12598;62.382;17.344;2022-08-01T04:44:35;5.47;;;2.40;;
13477;SDS011;12598;62.382;17.344;2022-08-01T04:45:38;6.03;;;2.50;;
13477;SDS011;12598;62.382;17.344;2022-08-01T04:46:41;5.97;;;2.97;;
13477;SDS011;12598;62.382;17.344;2022-08-01T04:47:45;5.43;;;2.40;;
13477;SDS011;12598;62.382;17.344;2022-08-01T04:48:49;3.60;;;2.50;;
13477;SDS011;12598;62.382;17.344;2022-08-01T04:49:52;4.70;;;2.15;;
13477;SDS011;12598;62.382;17.344;2022-08-01T04:50:55;6.95;;;2.42;;
13477;SDS011;12598;62.382;17.344;2022-08-01T04:51:57;3.60;;;2.50;;
13477;SDS011;12598;62.382;17.344;2022-08-01T04:52:58;4.82;;;3.05;;
13477;SDS011;12598;62.382;17.344;2022-08-01T04:54:00;5.07;;;2.45;;
13477;SDS011;12598;62.382;17.344;2022-08-01T04:55:03;5.85;;;2.58;;
13477;SDS011;12598;62.382;17.344;2022-08-01T04:56:07;3.45;;;2.10;;
13477;SDS011;12598;62.382;17.344;2022-08-01T04:57:09;11.13;;;2.92;;
13477;SDS011;12598;62.382;17.344;2022-08-01T04:58:11;6.32;;;2.42;;
13477;SDS011;12598;62.382;17.344;2022-08-01T04:59:19;7.63;;;2.33;;
13477;SDS011;12598;62.382;17.344;2022-08-01T05:00:39;2.88;;;2.15;;
13477;SDS011;12598;62.382;17.344;2022-08-01T05:01:41;4.75;;;2.28;;
13477;SDS011;12598;62.382;17.344;2022-08-01T05:02:43;5.97;;;2.63;;
13477;SDS011;12598;62.382;17.344;2022-08-01T05:03:45;6.47;;;2.88;;
13477;SDS011;12598;62.382;17.344;2022-08-01T05:04:47;3.72;;;2.67;;
13477;SDS011;12598;62.382;17.344;2022-08-01T05:05:49;5.15;;;2.60;;
13477;SDS011;12598;62.382;17.344;2022-08-01T05:06:51;3.42;;;2.15;;
13477;SDS011;12598;62.382;17.344;2022-08-01T05:07:53;5.32;;;2.60;;
13477;SDS011;12598;62.382;17.344;2022-08-01T05:08:55;5.57;;;2.40;;
13477;SDS011;12598;62.382;17.344;2022-08-01T05:09:57;4.63;;;2.30;;
13477;SDS011;12598;62.382;17.344;2022-08-01T05:10:59;3.38;;;2.28;;
13477;SDS011;12598;62.382;17.344;2022-08-01T05:12:03;3.95;;;2.22;;
13477;SDS011;12598;62.382;17.344;2022-08-01T05:13:07;3.45;;;2.40;;
13477;SDS011;12598;62.382;17.344;2022-08-01T05:14:09;4.47;;;2.22;;
13477;SDS011;12598;62.382;17.344;2022-08-01T05:15:12;4.32;;;2.30;;
13477;SDS011;12598;62.382;17.344;2022-08-01T05:16:16;5.15;;;2.63;;
13477;SDS011;12598;62.382;17.344;2022-08-01T05:17:18;3.88;;;2.67;;
13477;SDS011;12598;62.382;17.344;2022-08-01T05:18:20;5.05;;;2.20;;
13477;SDS011;12598;62.382;17.344;2022-08-01T05:19:32;4.47;;;1.83;;
13477;SDS011;12598;62.382;17.344;2022-08-01T05:20:35;3.33;;;1.98;;
13477;SDS011;12598;62.382;17.344;2022-08-01T05:21:38;3.45;;;2.25;;
13477;SDS011;12598;62.382;17.344;2022-08-01T05:22:40;4.20;;;2.13;;
13477;SDS011;12598;62.382;17.344;2022-08-01T05:23:42;3.25;;;1.90;;
13477;SDS011;12598;62.382;17.344;2022-08-01T05:24:44;4.90;;;2.63;;
13477;SDS011;12598;62.382;17.344;2022-08-01T05:25:49;3.30;;;2.13;;
13477;SDS011;12598;62.382;17.344;2022-08-01T05:26:59;4.20;;;1.98;;
13477;SDS011;12598;62.382;17.344;2022-08-01T05:28:03;4.07;;;2.15;;
13477;SDS011;12598;62.382;17.344;2022-08-01T05:29:06;3.63;;;2.10;;
13477;SDS011;12598;62.382;17.344;2022-08-01T05:30:08;5.00;;;2.10;;
13477;SDS011;12598;62.382;17.344;2022-08-01T05:31:11;3.35;;;2.13;;
13477;SDS011;12598;62.382;17.344;2022-08-01T05:32:13;4.18;;;2.10;;
13477;SDS011;12598;62.382;17.344;2022-08-01T05:33:15;3.50;;;2.15;;
13477;SDS011;12598;62.382;17.344;2022-08-01T05:34:17;7.13;;;2.60;;
13477;SDS011;12598;62.382;17.344;2022-08-01T05:35:19;2.80;;;2.15;;
13477;SDS011;12598;62.382;17.344;2022-08-01T05:36:21;5.03;;;2.50;;
13477;SDS011;12598;62.382;17.344;2022-08-01T05:37:23;2.63;;;2.10;;
13477;SDS011;12598;62.382;17.344;2022-08-01T05:38:25;6.90;;;2.40;;
13477;SDS011;12598;62.382;17.344;2022-08-01T05:39:27;4.22;;;2.35;;
13477;SDS011;12598;62.382;17.344;2022-08-01T05:40:29;5.28;;;2.35;;
13477;SDS011;12598;62.382;17.344;2022-08-01T05:41:31;5.00;;;2.22;;
13477;SDS011;12598;62.382;17.344;2022-08-01T05:42:32;6.40;;;2.47;;
13477;SDS011;12598;62.382;17.344;2022-08-01T05:43:34;3.20;;;2.10;;
13477;SDS011;12598;62.382;17.344;2022-08-01T05:44:36;3.95;;;2.40;;
13477;SDS011;12598;62.382;17.344;2022-08-01T05:45:38;4.63;;;2.50;;
13477;SDS011;12598;62.382;17.344;2022-08-01T05:46:40;4.18;;;2.20;;
13477;SDS011;12598;62.382;17.344;2022-08-01T05:47:42;4.25;;;2.38;;
13477;SDS011;12598;62.382;17.344;2022-08-01T05:48:44;4.63;;;2.17;;
13477;SDS011;12598;62.382;17.344;2022-08-01T05:49:46;3.75;;;2.10;;
13477;SDS011;12598;62.382;17.344;2022-08-01T05:50:48;5.75;;;2.22;;
13477;SDS011;12598;62.382;17.344;2022-08-01T05:51:51;6.93;;;2.83;;
13477;SDS011;12598;62.382;17.344;2022-08-01T05:52:54;6.88;;;2.55;;
13477;SDS011;12598;62.382;17.344;2022-08-01T05:53:56;6.80;;;2.35;;
13477;SDS011;12598;62.382;17.344;2022-08-01T05:54:58;3.72;;;2.30;;
13477;SDS011;12598;62.382;17.344;2022-08-01T05:56:00;3.90;;;2.30;;
13477;SDS011;12598;62.382;17.344;2022-08-01T05:57:03;5.63;;;2.75;;
13477;SDS011;12598;62.382;17.344;2022-08-01T05:58:05;7.78;;;2.35;;
13477;SDS011;12598;62.382;17.344;2022-08-01T05:59:07;7.15;;;2.40;;
13477;SDS011;12598;62.382;17.344;2022-08-01T06:00:09;5.57;;;2.78;;
13477;SDS011;12598;62.382;17.344;2022-08-01T06:01:14;5.20;;;2.45;;
13477;SDS011;12598;62.382;17.344;2022-08-01T06:02:16;3.50;;;2.50;;
13477;SDS011;12598;62.382;17.344;2022-08-01T06:03:18;2.75;;;1.92;;
13477;SDS011;12598;62.382;17.344;2022-08-01T06:04:20;3.97;;;2.28;;
13477;SDS011;12598;62.382;17.344;2022-08-01T06:05:22;3.70;;;2.20;;
13477;SDS011;12598;62.382;17.344;2022-08-01T06:06:24;6.45;;;2.83;;
13477;SDS011;12598;62.382;17.344;2022-08-01T06:07:26;6.05;;;2.40;;
13477;SDS011;12598;62.382;17.344;2022-08-01T06:08:27;3.53;;;2.47;;
13477;SDS011;12598;62.382;17.344;2022-08-01T06:09:29;3.30;;;2.30;;
13477;SDS011;12598;62.382;17.344;2022-08-01T06:10:32;3.75;;;2.42;;
13477;SDS011;12598;62.382;17.344;2022-08-01T06:11:34;4.45;;;2.30;;
13477;SDS011;12598;62.382;17.344;2022-08-01T06:12:36;4.43;;;2.50;;
13477;SDS011;12598;62.382;17.344;2022-08-01T06:13:39;6.40;;;2.33;;
13477;SDS011;12598;62.382;17.344;2022-08-01T06:14:49;6.18;;;2.40;;
13477;SDS011;12598;62.382;17.344;2022-08-01T06:15:51;4.72;;;2.35;;
13477;SDS011;12598;62.382;17.344;2022-08-01T06:16:52;3.42;;;2.15;;
13477;SDS011;12598;62.382;17.344;2022-08-01T06:17:55;3.72;;;2.20;;
13477;SDS011;12598;62.382;17.344;2022-08-01T06:18:56;4.07;;;2.55;;
13477;SDS011;12598;62.382;17.344;2022-08-01T06:19:58;3.97;;;2.45;;
13477;SDS011;12598;62.382;17.344;2022-08-01T06:21:01;5.78;;;2.70;;
13477;SDS011;12598;62.382;17.344;2022-08-01T06:22:03;4.97;;;2.80;;
13477;SDS011;12598;62.382;17.344;2022-08-01T06:23:05;6.05;;;3.30;;
13477;SDS011;12598;62.382;17.344;2022-08-01T06:24:27;6.22;;;2.97;;
13477;SDS011;12598;62.382;17.344;2022-08-01T06:25:29;4.00;;;2.70;;
13477;SDS011;12598;62.382;17.344;2022-08-01T06:26:31;5.60;;;2.40;;
13477;SDS011;12598;62.382;17.344;2022-08-01T06:27:33;3.83;;;2.58;;
13477;SDS011;12598;62.382;17.344;2022-08-01T06:28:36;3.47;;;2.40;;
13477;SDS011;12598;62.382;17.344;2022-08-01T06:29:39;4.50;;;2.75;;
13477;SDS011;12598;62.382;17.344;2022-08-01T06:30:51;5.72;;;2.95;;